sensor_id;sensor_type;location;lat;lon;timestamp;temperature;humidity
43697;DHT22;29301;47.620;19.560;2022-07-15T00:01:15;25.00;57.90
43697;DHT22;29301;47.620;19.560;2022-07-15T00:03:41;24.90;58.00
43697;DHT22;29301;47.620;19.560;2022-07-15T00:06:06;24.90;58.00
43697;DHT22;29301;47.620;19.560;2022-07-15T00:08:32;24.90;58.00
43697;DHT22;29301;47.620;19.560;2022-07-15T00:10:58;24.90;58.00
43697;DHT22;29301;47.620;19.560;2022-07-15T00:13:24;24.90;58.10
43697;DHT22;29301;47.620;19.560;2022-07-15T00:15:50;24.90;58.10
43697;DHT22;29301;47.620;19.560;2022-07-15T00:18:16;25.00;58.60
43697;DHT22;29301;47.620;19.560;2022-07-15T00:20:42;25.00;57.70
43697;DHT22;29301;47.620;19.560;2022-07-15T00:23:08;25.10;57.70
43697;DHT22;29301;47.620;19.560;2022-07-15T00:25:34;25.20;57.40
43697;DHT22;29301;47.620;19.560;2022-07-15T00:28:05;25.30;57.80
43697;DHT22;29301;47.620;19.560;2022-07-15T00:30:36;25.30;57.60
43697;DHT22;29301;47.620;19.560;2022-07-15T00:33:02;25.40;57.70
43697;DHT22;29301;47.620;19.560;2022-07-15T00:35:29;25.50;57.50
43697;DHT22;29301;47.620;19.560;2022-07-15T00:37:55;25.50;57.30
43697;DHT22;29301;47.620;19.560;2022-07-15T00:40:21;25.60;57.00
43697;DHT22;29301;47.620;19.560;2022-07-15T00:42:47;25.60;56.90
43697;DHT22;29301;47.620;19.560;2022-07-15T00:47:42;25.60;56.60
43697;DHT22;29301;47.620;19.560;2022-07-15T00:50:08;25.60;56.80
43697;DHT22;29301;47.620;19.560;2022-07-15T00:52:35;25.50;57.20
43697;DHT22;29301;47.620;19.560;2022-07-15T00:55:04;25.50;57.80
43697;DHT22;29301;47.620;19.560;2022-07-15T00:57:33;25.40;57.70
43697;DHT22;29301;47.620;19.560;2022-07-15T01:00:02;25.40;57.60
43697;DHT22;29301;47.620;19.560;2022-07-15T01:02:31;25.50;57.70
43697;DHT22;29301;47.620;19.560;2022-07-15T01:04:58;25.50;57.70
43697;DHT22;29301;47.620;19.560;2022-07-15T01:07:24;25.50;57.60
43697;DHT22;29301;47.620;19.560;2022-07-15T01:09:50;25.50;57.80
43697;DHT22;29301;47.620;19.560;2022-07-15T01:12:16;25.50;57.90
43697;DHT22;29301;47.620;19.560;2022-07-15T01:14:41;25.50;58.10
43697;DHT22;29301;47.620;19.560;2022-07-15T01:17:11;25.40;58.30
43697;DHT22;29301;47.620;19.560;2022-07-15T01:19:37;25.50;58.20
43697;DHT22;29301;47.620;19.560;2022-07-15T01:22:04;25.50;58.20
43697;DHT22;29301;47.620;19.560;2022-07-15T01:24:30;25.50;58.10
43697;DHT22;29301;47.620;19.560;2022-07-15T01:26:55;25.50;58.20
43697;DHT22;29301;47.620;19.560;2022-07-15T01:29:21;25.50;58.30
43697;DHT22;29301;47.620;19.560;2022-07-15T01:31:47;25.50;58.80
43697;DHT22;29301;47.620;19.560;2022-07-15T01:34:13;25.40;58.60
43697;DHT22;29301;47.620;19.560;2022-07-15T01:36:38;25.40;58.50
43697;DHT22;29301;47.620;19.560;2022-07-15T01:39:04;25.40;58.60
43697;DHT22;29301;47.620;19.560;2022-07-15T01:41:30;25.30;59.30
43697;DHT22;29301;47.620;19.560;2022-07-15T01:43:57;25.30;59.30
43697;DHT22;29301;47.620;19.560;2022-07-15T01:46:23;25.30;59.40
43697;DHT22;29301;47.620;19.560;2022-07-15T01:48:49;25.30;59.30
43697;DHT22;29301;47.620;19.560;2022-07-15T01:51:33;25.30;59.10
43697;DHT22;29301;47.620;19.560;2022-07-15T01:53:59;25.40;59.20
43697;DHT22;29301;47.620;19.560;2022-07-15T01:56:25;25.40;59.20
43697;DHT22;29301;47.620;19.560;2022-07-15T01:58:50;25.30;59.10
43697;DHT22;29301;47.620;19.560;2022-07-15T02:01:16;25.30;59.10
43697;DHT22;29301;47.620;19.560;2022-07-15T02:03:44;25.30;59.10
43697;DHT22;29301;47.620;19.560;2022-07-15T02:06:10;25.20;59.10
43697;DHT22;29301;47.620;19.560;2022-07-15T02:08:36;25.20;59.30
43697;DHT22;29301;47.620;19.560;2022-07-15T02:11:02;25.20;59.40
43697;DHT22;29301;47.620;19.560;2022-07-15T02:13:27;25.20;59.30
43697;DHT22;29301;47.620;19.560;2022-07-15T02:15:54;25.20;59.30
43697;DHT22;29301;47.620;19.560;2022-07-15T02:18:20;25.20;59.30
43697;DHT22;29301;47.620;19.560;2022-07-15T02:20:46;25.20;59.50
43697;DHT22;29301;47.620;19.560;2022-07-15T02:23:12;25.30;59.40
43697;DHT22;29301;47.620;19.560;2022-07-15T02:25:38;25.30;59.30
43697;DHT22;29301;47.620;19.560;2022-07-15T02:28:05;25.20;59.40
43697;DHT22;29301;47.620;19.560;2022-07-15T02:30:39;25.20;59.70
43697;DHT22;29301;47.620;19.560;2022-07-15T02:33:05;25.20;59.70
43697;DHT22;29301;47.620;19.560;2022-07-15T02:35:31;25.10;59.80
43697;DHT22;29301;47.620;19.560;2022-07-15T02:37:57;25.10;59.90
43697;DHT22;29301;47.620;19.560;2022-07-15T02:40:23;25.00;59.90
43697;DHT22;29301;47.620;19.560;2022-07-15T02:42:51;25.00;60.00
43697;DHT22;29301;47.620;19.560;2022-07-15T02:45:18;25.00;60.30
43697;DHT22;29301;47.620;19.560;2022-07-15T02:47:45;25.00;60.50
43697;DHT22;29301;47.620;19.560;2022-07-15T02:50:11;25.10;60.50
43697;DHT22;29301;47.620;19.560;2022-07-15T02:52:37;25.00;60.50
43697;DHT22;29301;47.620;19.560;2022-07-15T02:55:03;25.00;60.60
43697;DHT22;29301;47.620;19.560;2022-07-15T02:57:29;24.90;60.40
43697;DHT22;29301;47.620;19.560;2022-07-15T02:59:55;24.80;60.40
43697;DHT22;29301;47.620;19.560;2022-07-15T03:02:20;24.80;60.40
43697;DHT22;29301;47.620;19.560;2022-07-15T03:04:46;24.80;60.30
43697;DHT22;29301;47.620;19.560;2022-07-15T03:07:13;24.80;60.50
43697;DHT22;29301;47.620;19.560;2022-07-15T03:09:39;24.70;60.60
43697;DHT22;29301;47.620;19.560;2022-07-15T03:12:04;24.80;60.60
43697;DHT22;29301;47.620;19.560;2022-07-15T03:14:30;24.70;60.50
43697;DHT22;29301;47.620;19.560;2022-07-15T03:16:56;24.70;60.50
43697;DHT22;29301;47.620;19.560;2022-07-15T03:19:22;24.70;60.50
43697;DHT22;29301;47.620;19.560;2022-07-15T03:21:48;24.70;60.50
43697;DHT22;29301;47.620;19.560;2022-07-15T03:24:14;24.70;60.60
43697;DHT22;29301;47.620;19.560;2022-07-15T03:26:40;24.70;60.70
43697;DHT22;29301;47.620;19.560;2022-07-15T03:29:06;24.70;60.70
43697;DHT22;29301;47.620;19.560;2022-07-15T03:31:32;24.70;60.80
43697;DHT22;29301;47.620;19.560;2022-07-15T03:33:58;24.60;60.60
43697;DHT22;29301;47.620;19.560;2022-07-15T03:36:23;24.70;60.60
43697;DHT22;29301;47.620;19.560;2022-07-15T03:38:50;24.60;60.60
43697;DHT22;29301;47.620;19.560;2022-07-15T03:41:20;24.70;60.70
43697;DHT22;29301;47.620;19.560;2022-07-15T03:43:46;24.70;60.80
43697;DHT22;29301;47.620;19.560;2022-07-15T03:46:12;24.70;60.80
43697;DHT22;29301;47.620;19.560;2022-07-15T03:48:39;24.70;60.70
43697;DHT22;29301;47.620;19.560;2022-07-15T03:51:05;24.70;60.80
43697;DHT22;29301;47.620;19.560;2022-07-15T03:53:31;24.60;60.80
43697;DHT22;29301;47.620;19.560;2022-07-15T03:55:57;24.60;60.90
43697;DHT22;29301;47.620;19.560;2022-07-15T03:58:22;24.60;61.10
43697;DHT22;29301;47.620;19.560;2022-07-15T04:00:48;24.60;61.10
43697;DHT22;29301;47.620;19.560;2022-07-15T04:03:14;24.60;61.50
43697;DHT22;29301;47.620;19.560;2022-07-15T04:05:39;24.60;61.60
43697;DHT22;29301;47.620;19.560;2022-07-15T04:08:05;24.60;61.40
43697;DHT22;29301;47.620;19.560;2022-07-15T04:10:31;24.60;61.40
43697;DHT22;29301;47.620;19.560;2022-07-15T04:12:57;24.60;61.40
43697;DHT22;29301;47.620;19.560;2022-07-15T04:15:24;24.60;61.70
43697;DHT22;29301;47.620;19.560;2022-07-15T04:17:50;24.70;61.90
43697;DHT22;29301;47.620;19.560;2022-07-15T04:20:16;24.70;62.30
43697;DHT22;29301;47.620;19.560;2022-07-15T04:22:43;24.70;63.20
43697;DHT22;29301;47.620;19.560;2022-07-15T04:25:11;24.70;64.60
43697;DHT22;29301;47.620;19.560;2022-07-15T04:27:37;24.60;64.80
43697;DHT22;29301;47.620;19.560;2022-07-15T04:30:07;24.50;65.50
43697;DHT22;29301;47.620;19.560;2022-07-15T04:32:33;24.50;66.10
43697;DHT22;29301;47.620;19.560;2022-07-15T04:34:58;24.40;65.90
43697;DHT22;29301;47.620;19.560;2022-07-15T04:37:24;24.40;65.80
43697;DHT22;29301;47.620;19.560;2022-07-15T04:39:50;24.50;65.40
43697;DHT22;29301;47.620;19.560;2022-07-15T04:42:16;24.50;65.30
43697;DHT22;29301;47.620;19.560;2022-07-15T04:44:42;24.50;65.20
43697;DHT22;29301;47.620;19.560;2022-07-15T04:47:08;24.50;66.50
43697;DHT22;29301;47.620;19.560;2022-07-15T04:49:33;24.50;68.60
43697;DHT22;29301;47.620;19.560;2022-07-15T04:52:18;24.50;69.40
43697;DHT22;29301;47.620;19.560;2022-07-15T04:54:43;24.50;69.60
43697;DHT22;29301;47.620;19.560;2022-07-15T04:57:10;24.20;71.30
43697;DHT22;29301;47.620;19.560;2022-07-15T04:59:37;23.90;75.00
43697;DHT22;29301;47.620;19.560;2022-07-15T05:02:03;23.80;77.90
43697;DHT22;29301;47.620;19.560;2022-07-15T05:04:29;23.80;78.80
43697;DHT22;29301;47.620;19.560;2022-07-15T05:06:55;23.80;78.30
43697;DHT22;29301;47.620;19.560;2022-07-15T05:09:21;23.90;77.20
43697;DHT22;29301;47.620;19.560;2022-07-15T05:11:47;24.00;74.00
43697;DHT22;29301;47.620;19.560;2022-07-15T05:14:13;24.00;73.50
43697;DHT22;29301;47.620;19.560;2022-07-15T05:16:39;24.00;72.70
43697;DHT22;29301;47.620;19.560;2022-07-15T05:19:05;23.90;70.90
43697;DHT22;29301;47.620;19.560;2022-07-15T05:21:30;23.70;69.10
43697;DHT22;29301;47.620;19.560;2022-07-15T05:23:56;23.60;67.70
43697;DHT22;29301;47.620;19.560;2022-07-15T05:26:22;23.50;67.40
43697;DHT22;29301;47.620;19.560;2022-07-15T05:28:47;23.50;67.60
43697;DHT22;29301;47.620;19.560;2022-07-15T05:31:13;23.40;66.70
43697;DHT22;29301;47.620;19.560;2022-07-15T05:33:39;23.30;68.20
43697;DHT22;29301;47.620;19.560;2022-07-15T05:36:05;23.30;69.80
43697;DHT22;29301;47.620;19.560;2022-07-15T05:38:31;23.30;70.80
43697;DHT22;29301;47.620;19.560;2022-07-15T05:40:56;23.30;70.40
43697;DHT22;29301;47.620;19.560;2022-07-15T05:43:22;23.20;71.40
43697;DHT22;29301;47.620;19.560;2022-07-15T05:45:49;23.20;72.00
43697;DHT22;29301;47.620;19.560;2022-07-15T05:48:14;23.30;73.30
43697;DHT22;29301;47.620;19.560;2022-07-15T05:50:40;23.30;73.70
43697;DHT22;29301;47.620;19.560;2022-07-15T05:53:06;23.30;74.00
43697;DHT22;29301;47.620;19.560;2022-07-15T05:55:32;23.30;74.90
43697;DHT22;29301;47.620;19.560;2022-07-15T05:57:57;23.30;76.60
43697;DHT22;29301;47.620;19.560;2022-07-15T06:00:23;23.20;79.50
43697;DHT22;29301;47.620;19.560;2022-07-15T06:02:49;23.20;80.00
43697;DHT22;29301;47.620;19.560;2022-07-15T06:05:15;23.10;81.10
43697;DHT22;29301;47.620;19.560;2022-07-15T06:07:40;23.10;82.70
43697;DHT22;29301;47.620;19.560;2022-07-15T06:10:07;23.10;83.00
43697;DHT22;29301;47.620;19.560;2022-07-15T06:12:33;23.10;82.00
43697;DHT22;29301;47.620;19.560;2022-07-15T06:14:59;23.00;81.80
43697;DHT22;29301;47.620;19.560;2022-07-15T06:17:25;22.90;83.90
43697;DHT22;29301;47.620;19.560;2022-07-15T06:19:51;23.00;84.10
43697;DHT22;29301;47.620;19.560;2022-07-15T06:22:16;22.90;84.50
43697;DHT22;29301;47.620;19.560;2022-07-15T06:24:42;22.80;86.30
43697;DHT22;29301;47.620;19.560;2022-07-15T06:27:08;22.60;87.70
43697;DHT22;29301;47.620;19.560;2022-07-15T06:29:34;22.50;88.30
43697;DHT22;29301;47.620;19.560;2022-07-15T06:31:59;22.40;90.80
43697;DHT22;29301;47.620;19.560;2022-07-15T06:34:25;22.40;91.50
43697;DHT22;29301;47.620;19.560;2022-07-15T06:36:51;22.40;92.10
43697;DHT22;29301;47.620;19.560;2022-07-15T06:39:17;22.40;93.40
43697;DHT22;29301;47.620;19.560;2022-07-15T06:41:43;22.30;94.20
43697;DHT22;29301;47.620;19.560;2022-07-15T06:44:08;22.30;94.90
43697;DHT22;29301;47.620;19.560;2022-07-15T06:46:34;22.20;95.40
43697;DHT22;29301;47.620;19.560;2022-07-15T06:49:00;22.20;96.40
43697;DHT22;29301;47.620;19.560;2022-07-15T06:51:26;22.20;96.10
43697;DHT22;29301;47.620;19.560;2022-07-15T06:53:52;22.10;96.00
43697;DHT22;29301;47.620;19.560;2022-07-15T06:56:17;21.90;96.20
43697;DHT22;29301;47.620;19.560;2022-07-15T06:58:43;21.90;96.60
43697;DHT22;29301;47.620;19.560;2022-07-15T07:01:09;21.90;97.00
43697;DHT22;29301;47.620;19.560;2022-07-15T07:03:34;21.90;96.30
43697;DHT22;29301;47.620;19.560;2022-07-15T07:06:01;22.00;95.90
43697;DHT22;29301;47.620;19.560;2022-07-15T07:08:26;22.00;96.40
43697;DHT22;29301;47.620;19.560;2022-07-15T07:10:53;22.00;96.30
43697;DHT22;29301;47.620;19.560;2022-07-15T07:13:19;22.00;96.00
43697;DHT22;29301;47.620;19.560;2022-07-15T07:15:44;22.00;96.30
43697;DHT22;29301;47.620;19.560;2022-07-15T07:18:10;21.90;96.80
43697;DHT22;29301;47.620;19.560;2022-07-15T07:20:36;21.90;96.80
43697;DHT22;29301;47.620;19.560;2022-07-15T07:23:03;21.90;96.70
43697;DHT22;29301;47.620;19.560;2022-07-15T07:25:28;21.80;97.30
43697;DHT22;29301;47.620;19.560;2022-07-15T07:27:54;21.80;97.50
43697;DHT22;29301;47.620;19.560;2022-07-15T07:30:20;21.90;98.10
43697;DHT22;29301;47.620;19.560;2022-07-15T07:32:46;21.90;97.10
43697;DHT22;29301;47.620;19.560;2022-07-15T07:35:12;22.00;96.90
43697;DHT22;29301;47.620;19.560;2022-07-15T07:37:38;22.00;96.90
43697;DHT22;29301;47.620;19.560;2022-07-15T07:40:05;22.10;97.00
43697;DHT22;29301;47.620;19.560;2022-07-15T07:42:31;22.00;96.50
43697;DHT22;29301;47.620;19.560;2022-07-15T07:44:57;22.00;97.10
43697;DHT22;29301;47.620;19.560;2022-07-15T07:47:25;21.70;97.90
43697;DHT22;29301;47.620;19.560;2022-07-15T07:49:50;21.40;99.60
43697;DHT22;29301;47.620;19.560;2022-07-15T07:52:16;21.40;99.90
43697;DHT22;29301;47.620;19.560;2022-07-15T07:54:42;21.30;99.90
43697;DHT22;29301;47.620;19.560;2022-07-15T07:57:12;21.30;99.90
43697;DHT22;29301;47.620;19.560;2022-07-15T07:59:38;21.30;99.90
43697;DHT22;29301;47.620;19.560;2022-07-15T08:02:05;21.50;99.40
43697;DHT22;29301;47.620;19.560;2022-07-15T08:04:30;21.70;99.10
43697;DHT22;29301;47.620;19.560;2022-07-15T08:06:57;22.00;97.30
43697;DHT22;29301;47.620;19.560;2022-07-15T08:09:23;22.10;96.10
43697;DHT22;29301;47.620;19.560;2022-07-15T08:11:48;22.10;95.20
43697;DHT22;29301;47.620;19.560;2022-07-15T08:14:14;22.10;95.00
43697;DHT22;29301;47.620;19.560;2022-07-15T08:16:40;22.00;95.40
43697;DHT22;29301;47.620;19.560;2022-07-15T08:19:08;22.20;95.40
43697;DHT22;29301;47.620;19.560;2022-07-15T08:21:34;22.30;94.20
43697;DHT22;29301;47.620;19.560;2022-07-15T08:24:00;22.40;93.20
43697;DHT22;29301;47.620;19.560;2022-07-15T08:26:26;22.50;92.40
43697;DHT22;29301;47.620;19.560;2022-07-15T08:28:52;22.60;92.20
43697;DHT22;29301;47.620;19.560;2022-07-15T08:31:18;22.50;91.60
43697;DHT22;29301;47.620;19.560;2022-07-15T08:33:45;22.50;91.90
43697;DHT22;29301;47.620;19.560;2022-07-15T08:36:11;22.40;91.50
43697;DHT22;29301;47.620;19.560;2022-07-15T08:38:37;22.30;91.80
43697;DHT22;29301;47.620;19.560;2022-07-15T08:41:03;22.20;91.90
43697;DHT22;29301;47.620;19.560;2022-07-15T08:43:29;22.30;92.20
43697;DHT22;29301;47.620;19.560;2022-07-15T08:45:55;22.30;92.60
43697;DHT22;29301;47.620;19.560;2022-07-15T08:48:26;22.40;93.10
43697;DHT22;29301;47.620;19.560;2022-07-15T08:50:52;22.40;92.90
43697;DHT22;29301;47.620;19.560;2022-07-15T08:53:18;22.40;92.80
43697;DHT22;29301;47.620;19.560;2022-07-15T08:55:46;22.50;92.90
43697;DHT22;29301;47.620;19.560;2022-07-15T08:58:11;22.50;92.90
43697;DHT22;29301;47.620;19.560;2022-07-15T09:00:37;22.60;93.20
43697;DHT22;29301;47.620;19.560;2022-07-15T09:03:03;22.70;92.50
43697;DHT22;29301;47.620;19.560;2022-07-15T09:05:35;22.70;92.40
43697;DHT22;29301;47.620;19.560;2022-07-15T09:08:14;22.60;93.30
43697;DHT22;29301;47.620;19.560;2022-07-15T09:10:42;22.40;93.60
43697;DHT22;29301;47.620;19.560;2022-07-15T09:13:12;22.40;95.10
43697;DHT22;29301;47.620;19.560;2022-07-15T09:15:46;22.30;95.30
43697;DHT22;29301;47.620;19.560;2022-07-15T09:18:14;22.20;95.90
43697;DHT22;29301;47.620;19.560;2022-07-15T09:20:42;22.20;96.90
43697;DHT22;29301;47.620;19.560;2022-07-15T09:23:10;22.10;98.70
43697;DHT22;29301;47.620;19.560;2022-07-15T09:25:37;22.00;99.90
43697;DHT22;29301;47.620;19.560;2022-07-15T09:28:04;22.00;99.90
43697;DHT22;29301;47.620;19.560;2022-07-15T09:30:39;22.00;99.90
43697;DHT22;29301;47.620;19.560;2022-07-15T09:33:32;22.10;99.90
43697;DHT22;29301;47.620;19.560;2022-07-15T09:38:38;22.00;99.90
43697;DHT22;29301;47.620;19.560;2022-07-15T09:41:53;22.10;99.90
43697;DHT22;29301;47.620;19.560;2022-07-15T09:44:00;22.40;99.20
43697;DHT22;29301;47.620;19.560;2022-07-15T09:46:30;22.80;96.10
43697;DHT22;29301;47.620;19.560;2022-07-15T09:49:04;23.20;95.90
43697;DHT22;29301;47.620;19.560;2022-07-15T09:51:30;23.10;95.20
43697;DHT22;29301;47.620;19.560;2022-07-15T09:53:57;23.00;95.50
43697;DHT22;29301;47.620;19.560;2022-07-15T09:56:23;23.00;94.90
43697;DHT22;29301;47.620;19.560;2022-07-15T09:58:50;23.00;95.50
43697;DHT22;29301;47.620;19.560;2022-07-15T10:01:16;23.10;91.40
43697;DHT22;29301;47.620;19.560;2022-07-15T10:03:42;23.30;90.30
43697;DHT22;29301;47.620;19.560;2022-07-15T10:06:09;23.40;88.20
43697;DHT22;29301;47.620;19.560;2022-07-15T10:08:37;23.50;86.50
43697;DHT22;29301;47.620;19.560;2022-07-15T10:11:08;23.60;86.90
43697;DHT22;29301;47.620;19.560;2022-07-15T10:13:53;23.80;86.00
43697;DHT22;29301;47.620;19.560;2022-07-15T10:16:48;24.00;81.10
43697;DHT22;29301;47.620;19.560;2022-07-15T10:25:12;25.30;70.10
43697;DHT22;29301;47.620;19.560;2022-07-15T10:30:22;25.70;67.30
43697;DHT22;29301;47.620;19.560;2022-07-15T10:33:12;25.60;65.90
43697;DHT22;29301;47.620;19.560;2022-07-15T10:43:44;25.20;63.60
43697;DHT22;29301;47.620;19.560;2022-07-15T10:51:12;25.00;67.00
43697;DHT22;29301;47.620;19.560;2022-07-15T10:53:47;25.10;67.80
43697;DHT22;29301;47.620;19.560;2022-07-15T10:56:35;25.00;68.00
43697;DHT22;29301;47.620;19.560;2022-07-15T11:01:44;24.90;69.30
43697;DHT22;29301;47.620;19.560;2022-07-15T11:04:21;24.70;69.50
43697;DHT22;29301;47.620;19.560;2022-07-15T11:12:14;24.60;71.10
43697;DHT22;29301;47.620;19.560;2022-07-15T11:14:44;24.70;71.30
43697;DHT22;29301;47.620;19.560;2022-07-15T11:17:12;24.80;70.30
43697;DHT22;29301;47.620;19.560;2022-07-15T11:19:39;25.00;70.40
43697;DHT22;29301;47.620;19.560;2022-07-15T11:22:07;25.40;69.40
43697;DHT22;29301;47.620;19.560;2022-07-15T11:24:35;25.70;71.10
43697;DHT22;29301;47.620;19.560;2022-07-15T11:27:01;25.70;71.10
43697;DHT22;29301;47.620;19.560;2022-07-15T11:30:13;25.60;70.60
43697;DHT22;29301;47.620;19.560;2022-07-15T11:32:33;25.40;69.60
43697;DHT22;29301;47.620;19.560;2022-07-15T11:35:00;25.50;69.10
43697;DHT22;29301;47.620;19.560;2022-07-15T11:37:33;25.50;67.70
43697;DHT22;29301;47.620;19.560;2022-07-15T11:40:16;25.70;68.20
43697;DHT22;29301;47.620;19.560;2022-07-15T11:43:02;26.00;67.30
43697;DHT22;29301;47.620;19.560;2022-07-15T11:45:46;26.40;67.90
43697;DHT22;29301;47.620;19.560;2022-07-15T11:48:12;26.40;66.40
43697;DHT22;29301;47.620;19.560;2022-07-15T11:50:50;26.10;66.10
43697;DHT22;29301;47.620;19.560;2022-07-15T11:53:16;26.00;65.20
43697;DHT22;29301;47.620;19.560;2022-07-15T11:55:57;25.90;63.50
43697;DHT22;29301;47.620;19.560;2022-07-15T12:00:52;25.50;65.00
43697;DHT22;29301;47.620;19.560;2022-07-15T12:03:18;25.30;66.00
43697;DHT22;29301;47.620;19.560;2022-07-15T12:05:59;25.30;66.50
43697;DHT22;29301;47.620;19.560;2022-07-15T12:08:55;25.40;66.30
43697;DHT22;29301;47.620;19.560;2022-07-15T12:11:27;25.50;64.40
43697;DHT22;29301;47.620;19.560;2022-07-15T12:13:57;25.40;63.90
43697;DHT22;29301;47.620;19.560;2022-07-15T12:19:18;25.30;64.90
43697;DHT22;29301;47.620;19.560;2022-07-15T12:21:47;25.30;64.90
43697;DHT22;29301;47.620;19.560;2022-07-15T12:24:17;25.40;64.80
43697;DHT22;29301;47.620;19.560;2022-07-15T12:29:18;25.20;64.20
43697;DHT22;29301;47.620;19.560;2022-07-15T12:34:17;25.30;63.00
43697;DHT22;29301;47.620;19.560;2022-07-15T12:36:43;25.60;62.40
43697;DHT22;29301;47.620;19.560;2022-07-15T12:39:14;25.90;62.30
43697;DHT22;29301;47.620;19.560;2022-07-15T12:41:41;26.20;61.60
43697;DHT22;29301;47.620;19.560;2022-07-15T12:44:08;26.40;60.60
43697;DHT22;29301;47.620;19.560;2022-07-15T12:46:54;26.30;59.30
43697;DHT22;29301;47.620;19.560;2022-07-15T12:54:50;26.60;57.00
43697;DHT22;29301;47.620;19.560;2022-07-15T12:57:28;26.70;55.60
43697;DHT22;29301;47.620;19.560;2022-07-15T13:00:27;27.00;55.20
43697;DHT22;29301;47.620;19.560;2022-07-15T13:03:02;27.20;54.50
43697;DHT22;29301;47.620;19.560;2022-07-15T13:05:40;27.10;51.80
43697;DHT22;29301;47.620;19.560;2022-07-15T13:08:07;27.20;50.20
43697;DHT22;29301;47.620;19.560;2022-07-15T13:10:34;27.60;45.50
43697;DHT22;29301;47.620;19.560;2022-07-15T13:13:00;28.00;43.60
43697;DHT22;29301;47.620;19.560;2022-07-15T13:15:26;28.40;43.40
43697;DHT22;29301;47.620;19.560;2022-07-15T13:17:52;28.60;42.30
43697;DHT22;29301;47.620;19.560;2022-07-15T13:20:18;28.70;41.80
43697;DHT22;29301;47.620;19.560;2022-07-15T13:22:44;28.80;41.80
43697;DHT22;29301;47.620;19.560;2022-07-15T13:25:11;28.80;41.40
43697;DHT22;29301;47.620;19.560;2022-07-15T13:27:37;28.90;41.80
43697;DHT22;29301;47.620;19.560;2022-07-15T13:30:04;29.10;41.50
43697;DHT22;29301;47.620;19.560;2022-07-15T13:32:30;29.20;40.20
43697;DHT22;29301;47.620;19.560;2022-07-15T13:34:56;29.10;39.30
43697;DHT22;29301;47.620;19.560;2022-07-15T13:37:22;29.10;39.00
43697;DHT22;29301;47.620;19.560;2022-07-15T13:39:48;29.20;38.70
43697;DHT22;29301;47.620;19.560;2022-07-15T13:42:14;29.30;38.90
43697;DHT22;29301;47.620;19.560;2022-07-15T13:44:39;29.40;38.80
43697;DHT22;29301;47.620;19.560;2022-07-15T13:47:05;29.50;39.00
43697;DHT22;29301;47.620;19.560;2022-07-15T13:49:31;29.50;38.60
43697;DHT22;29301;47.620;19.560;2022-07-15T13:52:15;29.40;38.30
43697;DHT22;29301;47.620;19.560;2022-07-15T13:54:41;29.40;37.80
43697;DHT22;29301;47.620;19.560;2022-07-15T13:57:07;29.30;37.60
43697;DHT22;29301;47.620;19.560;2022-07-15T13:59:32;29.40;37.90
43697;DHT22;29301;47.620;19.560;2022-07-15T14:01:58;29.60;39.10
43697;DHT22;29301;47.620;19.560;2022-07-15T14:04:24;29.60;38.60
43697;DHT22;29301;47.620;19.560;2022-07-15T14:06:50;29.60;38.40
43697;DHT22;29301;47.620;19.560;2022-07-15T14:09:15;29.70;37.60
43697;DHT22;29301;47.620;19.560;2022-07-15T14:11:41;29.70;37.60
43697;DHT22;29301;47.620;19.560;2022-07-15T14:14:07;29.70;37.20
43697;DHT22;29301;47.620;19.560;2022-07-15T14:16:32;29.70;36.60
43697;DHT22;29301;47.620;19.560;2022-07-15T14:18:58;29.60;35.90
43697;DHT22;29301;47.620;19.560;2022-07-15T14:21:24;29.50;35.50
43697;DHT22;29301;47.620;19.560;2022-07-15T14:23:50;29.50;35.30
43697;DHT22;29301;47.620;19.560;2022-07-15T14:26:16;29.40;35.00
43697;DHT22;29301;47.620;19.560;2022-07-15T14:28:42;29.50;34.80
43697;DHT22;29301;47.620;19.560;2022-07-15T14:31:12;29.50;34.70
43697;DHT22;29301;47.620;19.560;2022-07-15T14:33:41;29.50;34.70
43697;DHT22;29301;47.620;19.560;2022-07-15T14:36:08;29.40;33.50
43697;DHT22;29301;47.620;19.560;2022-07-15T14:38:35;29.40;33.40
43697;DHT22;29301;47.620;19.560;2022-07-15T14:41:02;29.40;33.60
43697;DHT22;29301;47.620;19.560;2022-07-15T14:43:28;29.40;33.20
43697;DHT22;29301;47.620;19.560;2022-07-15T14:45:53;29.30;33.40
43697;DHT22;29301;47.620;19.560;2022-07-15T14:48:19;29.20;33.20
43697;DHT22;29301;47.620;19.560;2022-07-15T14:50:45;29.10;33.00
43697;DHT22;29301;47.620;19.560;2022-07-15T14:53:10;29.10;33.20
43697;DHT22;29301;47.620;19.560;2022-07-15T14:55:36;29.10;33.80
43697;DHT22;29301;47.620;19.560;2022-07-15T14:58:02;29.20;34.30
43697;DHT22;29301;47.620;19.560;2022-07-15T15:00:28;29.20;35.60
43697;DHT22;29301;47.620;19.560;2022-07-15T15:02:54;29.10;35.50
43697;DHT22;29301;47.620;19.560;2022-07-15T15:05:19;29.00;36.30
43697;DHT22;29301;47.620;19.560;2022-07-15T15:07:45;29.00;36.60
43697;DHT22;29301;47.620;19.560;2022-07-15T15:10:11;28.90;36.80
43697;DHT22;29301;47.620;19.560;2022-07-15T15:12:37;28.90;37.10
43697;DHT22;29301;47.620;19.560;2022-07-15T15:15:02;28.80;37.00
43697;DHT22;29301;47.620;19.560;2022-07-15T15:17:28;28.70;36.70
43697;DHT22;29301;47.620;19.560;2022-07-15T15:19:54;28.70;37.00
43697;DHT22;29301;47.620;19.560;2022-07-15T15:22:20;28.60;37.60
43697;DHT22;29301;47.620;19.560;2022-07-15T15:24:45;28.70;38.30
43697;DHT22;29301;47.620;19.560;2022-07-15T15:27:11;28.60;38.00
43697;DHT22;29301;47.620;19.560;2022-07-15T15:29:38;28.60;38.00
43697;DHT22;29301;47.620;19.560;2022-07-15T15:32:04;28.60;38.20
43697;DHT22;29301;47.620;19.560;2022-07-15T15:34:32;28.50;37.70
43697;DHT22;29301;47.620;19.560;2022-07-15T15:36:58;28.40;37.80
43697;DHT22;29301;47.620;19.560;2022-07-15T15:39:23;28.40;38.00
43697;DHT22;29301;47.620;19.560;2022-07-15T15:41:49;28.30;37.70
43697;DHT22;29301;47.620;19.560;2022-07-15T15:44:15;28.30;37.60
43697;DHT22;29301;47.620;19.560;2022-07-15T15:46:41;28.20;37.60
43697;DHT22;29301;47.620;19.560;2022-07-15T15:49:07;28.10;37.50
43697;DHT22;29301;47.620;19.560;2022-07-15T15:51:33;28.00;37.60
43697;DHT22;29301;47.620;19.560;2022-07-15T15:53:59;27.90;37.40
43697;DHT22;29301;47.620;19.560;2022-07-15T15:56:24;27.90;37.20
43697;DHT22;29301;47.620;19.560;2022-07-15T15:58:51;27.90;37.10
43697;DHT22;29301;47.620;19.560;2022-07-15T16:01:17;27.80;36.90
43697;DHT22;29301;47.620;19.560;2022-07-15T16:03:42;27.70;37.30
43697;DHT22;29301;47.620;19.560;2022-07-15T16:06:08;27.70;36.60
43697;DHT22;29301;47.620;19.560;2022-07-15T16:08:35;27.50;36.60